sensor_id;sensor_type;location;lat;lon;timestamp;temperature;humidity
14901;DHT22;7542;49.078;9.194;2023-07-13T00:00:53;30.10;45.10
14901;DHT22;7542;49.078;9.194;2023-07-13T00:01:55;30.10;45.10
14901;DHT22;7542;49.078;9.194;2023-07-13T00:02:57;30.00;45.10
14901;DHT22;7542;49.078;9.194;2023-07-13T00:04:00;30.00;45.30
14901;DHT22;7542;49.078;9.194;2023-07-13T00:05:03;30.00;45.30
14901;DHT22;7542;49.078;9.194;2023-07-13T00:06:05;30.00;45.40
14901;DHT22;7542;49.078;9.194;2023-07-13T00:07:08;29.90;44.90
14901;DHT22;7542;49.078;9.194;2023-07-13T00:08:10;29.90;45.00
14901;DHT22;7542;49.078;9.194;2023-07-13T00:09:14;29.90;45.00
14901;DHT22;7542;49.078;9.194;2023-07-13T00:10:17;29.90;45.00
14901;DHT22;7542;49.078;9.194;2023-07-13T00:11:20;29.80;45.00
14901;DHT22;7542;49.078;9.194;2023-07-13T00:12:31;29.80;44.90
14901;DHT22;7542;49.078;9.194;2023-07-13T00:13:37;29.70;45.00
14901;DHT22;7542;49.078;9.194;2023-07-13T00:14:40;29.70;44.90
14901;DHT22;7542;49.078;9.194;2023-07-13T00:15:42;29.70;44.90
14901;DHT22;7542;49.078;9.194;2023-07-13T00:16:45;29.70;44.90
14901;DHT22;7542;49.078;9.194;2023-07-13T00:17:54;29.60;45.00
14901;DHT22;7542;49.078;9.194;2023-07-13T00:18:57;29.60;45.00
14901;DHT22;7542;49.078;9.194;2023-07-13T00:19:59;29.60;45.00
14901;DHT22;7542;49.078;9.194;2023-07-13T00:21:01;29.60;45.00
14901;DHT22;7542;49.078;9.194;2023-07-13T00:22:06;29.50;45.00
14901;DHT22;7542;49.078;9.194;2023-07-13T00:23:09;29.50;45.10
14901;DHT22;7542;49.078;9.194;2023-07-13T00:24:12;29.50;45.10
14901;DHT22;7542;49.078;9.194;2023-07-13T00:25:26;29.40;45.10
14901;DHT22;7542;49.078;9.194;2023-07-13T00:26:30;29.50;45.10
14901;DHT22;7542;49.078;9.194;2023-07-13T00:27:34;29.50;45.20
14901;DHT22;7542;49.078;9.194;2023-07-13T00:28:37;29.40;45.20
14901;DHT22;7542;49.078;9.194;2023-07-13T00:29:38;29.40;45.20
14901;DHT22;7542;49.078;9.194;2023-07-13T00:30:41;29.40;45.20
14901;DHT22;7542;49.078;9.194;2023-07-13T00:31:43;29.40;45.20
14901;DHT22;7542;49.078;9.194;2023-07-13T00:32:46;29.40;45.20
14901;DHT22;7542;49.078;9.194;2023-07-13T00:33:48;29.30;45.20
14901;DHT22;7542;49.078;9.194;2023-07-13T00:34:51;29.30;45.30
14901;DHT22;7542;49.078;9.194;2023-07-13T00:35:54;29.30;45.30
14901;DHT22;7542;49.078;9.194;2023-07-13T00:36:58;29.30;45.30
14901;DHT22;7542;49.078;9.194;2023-07-13T00:38:00;29.30;45.30
14901;DHT22;7542;49.078;9.194;2023-07-13T00:39:02;29.30;45.30
14901;DHT22;7542;49.078;9.194;2023-07-13T00:40:06;29.20;45.40
14901;DHT22;7542;49.078;9.194;2023-07-13T00:41:09;29.20;45.40
14901;DHT22;7542;49.078;9.194;2023-07-13T00:42:12;29.20;45.40
14901;DHT22;7542;49.078;9.194;2023-07-13T00:43:17;29.10;45.50
14901;DHT22;7542;49.078;9.194;2023-07-13T00:44:21;29.20;45.50
14901;DHT22;7542;49.078;9.194;2023-07-13T00:46:30;29.20;45.60
14901;DHT22;7542;49.078;9.194;2023-07-13T00:47:34;29.20;45.70
14901;DHT22;7542;49.078;9.194;2023-07-13T00:48:37;29.10;45.60
14901;DHT22;7542;49.078;9.194;2023-07-13T00:49:40;29.10;45.70
14901;DHT22;7542;49.078;9.194;2023-07-13T00:50:44;29.10;45.70
14901;DHT22;7542;49.078;9.194;2023-07-13T00:51:53;29.10;45.70
14901;DHT22;7542;49.078;9.194;2023-07-13T00:52:56;29.10;45.70
14901;DHT22;7542;49.078;9.194;2023-07-13T00:54:04;29.10;45.70
14901;DHT22;7542;49.078;9.194;2023-07-13T00:55:09;29.00;45.70
14901;DHT22;7542;49.078;9.194;2023-07-13T00:56:14;29.00;45.80
14901;DHT22;7542;49.078;9.194;2023-07-13T00:57:19;29.00;45.80
14901;DHT22;7542;49.078;9.194;2023-07-13T00:58:25;29.00;45.90
14901;DHT22;7542;49.078;9.194;2023-07-13T00:59:29;29.00;46.00
14901;DHT22;7542;49.078;9.194;2023-07-13T01:00:35;29.00;46.00
14901;DHT22;7542;49.078;9.194;2023-07-13T01:01:39;28.90;45.50
14901;DHT22;7542;49.078;9.194;2023-07-13T01:02:45;29.00;46.10
14901;DHT22;7542;49.078;9.194;2023-07-13T01:03:48;29.00;46.10
14901;DHT22;7542;49.078;9.194;2023-07-13T01:04:50;29.00;46.00
14901;DHT22;7542;49.078;9.194;2023-07-13T01:05:52;29.00;46.00
14901;DHT22;7542;49.078;9.194;2023-07-13T01:06:56;29.00;46.20
14901;DHT22;7542;49.078;9.194;2023-07-13T01:08:00;29.00;46.10
14901;DHT22;7542;49.078;9.194;2023-07-13T01:09:05;29.10;46.10
14901;DHT22;7542;49.078;9.194;2023-07-13T01:10:09;29.10;46.00
14901;DHT22;7542;49.078;9.194;2023-07-13T01:11:12;29.10;45.80
14901;DHT22;7542;49.078;9.194;2023-07-13T01:12:19;29.10;45.80
14901;DHT22;7542;49.078;9.194;2023-07-13T01:13:21;29.20;45.90
14901;DHT22;7542;49.078;9.194;2023-07-13T01:14:25;29.20;45.90
14901;DHT22;7542;49.078;9.194;2023-07-13T01:15:44;29.20;45.90
14901;DHT22;7542;49.078;9.194;2023-07-13T01:16:48;29.20;45.70
14901;DHT22;7542;49.078;9.194;2023-07-13T01:17:51;29.10;45.50
14901;DHT22;7542;49.078;9.194;2023-07-13T01:18:55;29.10;45.40
14901;DHT22;7542;49.078;9.194;2023-07-13T01:20:00;29.10;45.30
14901;DHT22;7542;49.078;9.194;2023-07-13T01:21:04;29.10;45.10
14901;DHT22;7542;49.078;9.194;2023-07-13T01:22:10;29.00;45.10
14901;DHT22;7542;49.078;9.194;2023-07-13T01:23:15;29.00;45.10
14901;DHT22;7542;49.078;9.194;2023-07-13T01:24:16;29.00;45.20
14901;DHT22;7542;49.078;9.194;2023-07-13T01:25:20;29.00;45.20
14901;DHT22;7542;49.078;9.194;2023-07-13T01:26:22;29.00;45.20
14901;DHT22;7542;49.078;9.194;2023-07-13T01:27:25;29.00;45.20
14901;DHT22;7542;49.078;9.194;2023-07-13T01:28:28;28.80;44.70
14901;DHT22;7542;49.078;9.194;2023-07-13T01:29:31;28.90;44.80
14901;DHT22;7542;49.078;9.194;2023-07-13T01:30:37;28.90;44.80
14901;DHT22;7542;49.078;9.194;2023-07-13T01:31:41;28.70;44.90
14901;DHT22;7542;49.078;9.194;2023-07-13T01:32:43;28.80;44.80
14901;DHT22;7542;49.078;9.194;2023-07-13T01:33:45;28.70;44.90
14901;DHT22;7542;49.078;9.194;2023-07-13T01:34:47;28.70;44.90
14901;DHT22;7542;49.078;9.194;2023-07-13T01:35:49;28.80;45.00
14901;DHT22;7542;49.078;9.194;2023-07-13T01:36:52;28.70;45.10
14901;DHT22;7542;49.078;9.194;2023-07-13T01:37:55;28.70;45.10
14901;DHT22;7542;49.078;9.194;2023-07-13T01:38:58;28.70;45.20
14901;DHT22;7542;49.078;9.194;2023-07-13T01:40:00;28.70;45.20
14901;DHT22;7542;49.078;9.194;2023-07-13T01:41:03;28.70;45.30
14901;DHT22;7542;49.078;9.194;2023-07-13T01:42:05;28.80;45.20
14901;DHT22;7542;49.078;9.194;2023-07-13T01:43:07;28.70;45.30
14901;DHT22;7542;49.078;9.194;2023-07-13T01:44:10;28.70;45.20
14901;DHT22;7542;49.078;9.194;2023-07-13T01:45:12;28.70;45.20
14901;DHT22;7542;49.078;9.194;2023-07-13T01:46:14;28.70;45.20
14901;DHT22;7542;49.078;9.194;2023-07-13T01:47:19;28.70;45.20
14901;DHT22;7542;49.078;9.194;2023-07-13T01:48:21;28.60;45.20
14901;DHT22;7542;49.078;9.194;2023-07-13T01:49:23;28.60;45.20
14901;DHT22;7542;49.078;9.194;2023-07-13T01:50:25;28.60;45.20
14901;DHT22;7542;49.078;9.194;2023-07-13T01:51:27;28.60;45.20
14901;DHT22;7542;49.078;9.194;2023-07-13T01:52:29;28.50;45.20
14901;DHT22;7542;49.078;9.194;2023-07-13T01:53:31;28.50;45.40
14901;DHT22;7542;49.078;9.194;2023-07-13T01:54:33;28.50;45.40
14901;DHT22;7542;49.078;9.194;2023-07-13T01:55:36;28.50;45.40
14901;DHT22;7542;49.078;9.194;2023-07-13T01:56:38;28.50;45.40
14901;DHT22;7542;49.078;9.194;2023-07-13T01:57:41;28.50;45.40
14901;DHT22;7542;49.078;9.194;2023-07-13T01:58:45;28.40;45.40
14901;DHT22;7542;49.078;9.194;2023-07-13T01:59:47;28.50;45.40
14901;DHT22;7542;49.078;9.194;2023-07-13T02:00:49;28.40;45.40
14901;DHT22;7542;49.078;9.194;2023-07-13T02:01:53;28.40;45.40
14901;DHT22;7542;49.078;9.194;2023-07-13T02:02:55;28.40;45.50
14901;DHT22;7542;49.078;9.194;2023-07-13T02:03:57;28.40;45.50
14901;DHT22;7542;49.078;9.194;2023-07-13T02:04:59;28.40;45.50
14901;DHT22;7542;49.078;9.194;2023-07-13T02:06:01;28.40;45.40
14901;DHT22;7542;49.078;9.194;2023-07-13T02:07:03;28.40;45.50
14901;DHT22;7542;49.078;9.194;2023-07-13T02:08:05;28.20;45.60
14901;DHT22;7542;49.078;9.194;2023-07-13T02:09:07;28.30;45.60
14901;DHT22;7542;49.078;9.194;2023-07-13T02:10:10;28.30;45.60
14901;DHT22;7542;49.078;9.194;2023-07-13T02:11:13;28.30;45.60
14901;DHT22;7542;49.078;9.194;2023-07-13T02:12:15;28.30;45.60
14901;DHT22;7542;49.078;9.194;2023-07-13T02:13:17;28.30;45.60
14901;DHT22;7542;49.078;9.194;2023-07-13T02:14:19;28.30;45.60
14901;DHT22;7542;49.078;9.194;2023-07-13T02:15:21;28.30;45.50
14901;DHT22;7542;49.078;9.194;2023-07-13T02:16:23;28.30;45.50
14901;DHT22;7542;49.078;9.194;2023-07-13T02:17:26;28.30;45.50
14901;DHT22;7542;49.078;9.194;2023-07-13T02:18:28;28.30;45.50
14901;DHT22;7542;49.078;9.194;2023-07-13T02:19:30;28.30;45.50
14901;DHT22;7542;49.078;9.194;2023-07-13T02:20:33;28.30;45.50
14901;DHT22;7542;49.078;9.194;2023-07-13T02:21:35;28.20;45.60
14901;DHT22;7542;49.078;9.194;2023-07-13T02:22:37;28.20;45.50
14901;DHT22;7542;49.078;9.194;2023-07-13T02:23:39;28.20;45.50
14901;DHT22;7542;49.078;9.194;2023-07-13T02:24:41;28.20;45.50
14901;DHT22;7542;49.078;9.194;2023-07-13T02:25:43;28.20;45.40
14901;DHT22;7542;49.078;9.194;2023-07-13T02:26:45;28.10;45.40
14901;DHT22;7542;49.078;9.194;2023-07-13T02:27:48;28.10;45.50
14901;DHT22;7542;49.078;9.194;2023-07-13T02:28:50;28.20;45.50
14901;DHT22;7542;49.078;9.194;2023-07-13T02:29:52;28.10;45.60
14901;DHT22;7542;49.078;9.194;2023-07-13T02:30:55;28.20;45.50
14901;DHT22;7542;49.078;9.194;2023-07-13T02:31:57;25.70;44.10
14901;DHT22;7542;49.078;9.194;2023-07-13T02:32:59;24.40;43.80
14901;DHT22;7542;49.078;9.194;2023-07-13T02:34:01;28.10;45.60
14901;DHT22;7542;49.078;9.194;2023-07-13T02:35:04;28.00;45.60
14901;DHT22;7542;49.078;9.194;2023-07-13T02:36:10;28.10;45.60
14901;DHT22;7542;49.078;9.194;2023-07-13T02:37:14;28.10;45.60
14901;DHT22;7542;49.078;9.194;2023-07-13T02:38:16;28.10;45.60
14901;DHT22;7542;49.078;9.194;2023-07-13T02:39:17;28.10;45.60
14901;DHT22;7542;49.078;9.194;2023-07-13T02:40:20;28.10;45.60
14901;DHT22;7542;49.078;9.194;2023-07-13T02:41:22;28.00;45.60
14901;DHT22;7542;49.078;9.194;2023-07-13T02:42:24;28.10;45.60
14901;DHT22;7542;49.078;9.194;2023-07-13T02:43:26;28.00;45.60
14901;DHT22;7542;49.078;9.194;2023-07-13T02:44:29;28.00;45.60
14901;DHT22;7542;49.078;9.194;2023-07-13T02:45:31;28.00;45.60
14901;DHT22;7542;49.078;9.194;2023-07-13T02:46:34;28.00;45.60
14901;DHT22;7542;49.078;9.194;2023-07-13T02:47:39;28.00;45.60
14901;DHT22;7542;49.078;9.194;2023-07-13T02:48:42;28.00;45.60
14901;DHT22;7542;49.078;9.194;2023-07-13T02:49:44;28.00;45.60
14901;DHT22;7542;49.078;9.194;2023-07-13T02:50:46;28.00;45.60
14901;DHT22;7542;49.078;9.194;2023-07-13T02:51:49;27.80;45.10
14901;DHT22;7542;49.078;9.194;2023-07-13T02:52:51;28.00;45.60
14901;DHT22;7542;49.078;9.194;2023-07-13T02:53:53;28.00;45.60
14901;DHT22;7542;49.078;9.194;2023-07-13T02:54:55;28.00;45.60
14901;DHT22;7542;49.078;9.194;2023-07-13T02:55:57;27.90;45.10
14901;DHT22;7542;49.078;9.194;2023-07-13T02:56:59;27.90;45.20
14901;DHT22;7542;49.078;9.194;2023-07-13T02:58:01;27.90;45.20
14901;DHT22;7542;49.078;9.194;2023-07-13T02:59:03;27.90;45.20
14901;DHT22;7542;49.078;9.194;2023-07-13T03:00:06;27.60;45.20
14901;DHT22;7542;49.078;9.194;2023-07-13T03:01:10;27.90;45.30
14901;DHT22;7542;49.078;9.194;2023-07-13T03:02:13;27.80;45.30
14901;DHT22;7542;49.078;9.194;2023-07-13T03:03:15;27.80;45.30
14901;DHT22;7542;49.078;9.194;2023-07-13T03:04:18;27.80;45.20
14901;DHT22;7542;49.078;9.194;2023-07-13T03:05:21;27.80;45.20
14901;DHT22;7542;49.078;9.194;2023-07-13T03:06:23;27.80;45.30
14901;DHT22;7542;49.078;9.194;2023-07-13T03:07:26;27.80;45.30
14901;DHT22;7542;49.078;9.194;2023-07-13T03:08:28;27.80;45.30
14901;DHT22;7542;49.078;9.194;2023-07-13T03:09:32;27.80;45.30
14901;DHT22;7542;49.078;9.194;2023-07-13T03:10:35;27.80;45.30
14901;DHT22;7542;49.078;9.194;2023-07-13T03:11:37;27.80;45.30
14901;DHT22;7542;49.078;9.194;2023-07-13T03:12:40;27.70;45.30
14901;DHT22;7542;49.078;9.194;2023-07-13T03:13:42;27.80;45.30
14901;DHT22;7542;49.078;9.194;2023-07-13T03:14:44;27.80;45.30
14901;DHT22;7542;49.078;9.194;2023-07-13T03:15:48;27.80;45.40
14901;DHT22;7542;49.078;9.194;2023-07-13T03:16:50;27.70;45.40
14901;DHT22;7542;49.078;9.194;2023-07-13T03:17:53;27.80;45.40
14901;DHT22;7542;49.078;9.194;2023-07-13T03:18:55;27.70;45.40
14901;DHT22;7542;49.078;9.194;2023-07-13T03:19:57;27.80;45.50
14901;DHT22;7542;49.078;9.194;2023-07-13T03:20:59;27.70;45.50
14901;DHT22;7542;49.078;9.194;2023-07-13T03:22:01;27.70;45.50
14901;DHT22;7542;49.078;9.194;2023-07-13T03:23:04;27.70;45.60
14901;DHT22;7542;49.078;9.194;2023-07-13T03:24:06;27.70;45.60
14901;DHT22;7542;49.078;9.194;2023-07-13T03:25:08;27.70;45.60
14901;DHT22;7542;49.078;9.194;2023-07-13T03:26:13;27.60;45.70
14901;DHT22;7542;49.078;9.194;2023-07-13T03:27:20;27.60;45.70
14901;DHT22;7542;49.078;9.194;2023-07-13T03:28:22;27.70;45.70
14901;DHT22;7542;49.078;9.194;2023-07-13T03:29:24;27.60;45.70
14901;DHT22;7542;49.078;9.194;2023-07-13T03:30:25;27.60;45.80
14901;DHT22;7542;49.078;9.194;2023-07-13T03:31:32;27.60;45.80
14901;DHT22;7542;49.078;9.194;2023-07-13T03:32:35;27.50;45.90
14901;DHT22;7542;49.078;9.194;2023-07-13T03:33:38;27.60;45.80
14901;DHT22;7542;49.078;9.194;2023-07-13T03:34:40;27.60;45.80
14901;DHT22;7542;49.078;9.194;2023-07-13T03:35:42;27.50;45.80
14901;DHT22;7542;49.078;9.194;2023-07-13T03:36:44;27.70;45.80
14901;DHT22;7542;49.078;9.194;2023-07-13T03:37:46;27.50;45.90
14901;DHT22;7542;49.078;9.194;2023-07-13T03:38:50;27.50;45.90
14901;DHT22;7542;49.078;9.194;2023-07-13T03:39:54;27.60;45.90
14901;DHT22;7542;49.078;9.194;2023-07-13T03:40:57;27.50;45.90
14901;DHT22;7542;49.078;9.194;2023-07-13T03:41:59;27.50;46.00
14901;DHT22;7542;49.078;9.194;2023-07-13T03:43:00;27.50;46.00
14901;DHT22;7542;49.078;9.194;2023-07-13T03:44:04;27.50;46.00
14901;DHT22;7542;49.078;9.194;2023-07-13T03:45:07;27.40;46.10
14901;DHT22;7542;49.078;9.194;2023-07-13T03:46:09;27.50;46.10
14901;DHT22;7542;49.078;9.194;2023-07-13T03:47:12;27.50;46.10
14901;DHT22;7542;49.078;9.194;2023-07-13T03:48:14;27.50;46.10
14901;DHT22;7542;49.078;9.194;2023-07-13T03:49:16;27.50;46.10
14901;DHT22;7542;49.078;9.194;2023-07-13T03:50:18;27.50;46.10
14901;DHT22;7542;49.078;9.194;2023-07-13T03:51:21;27.50;46.10
14901;DHT22;7542;49.078;9.194;2023-07-13T03:52:23;27.40;46.20
14901;DHT22;7542;49.078;9.194;2023-07-13T03:53:25;27.50;46.20
14901;DHT22;7542;49.078;9.194;2023-07-13T03:54:28;27.40;46.20
14901;DHT22;7542;49.078;9.194;2023-07-13T03:55:30;27.40;46.20
14901;DHT22;7542;49.078;9.194;2023-07-13T03:56:31;27.50;46.20
14901;DHT22;7542;49.078;9.194;2023-07-13T03:57:35;27.40;46.30
14901;DHT22;7542;49.078;9.194;2023-07-13T03:58:41;27.40;46.30
14901;DHT22;7542;49.078;9.194;2023-07-13T03:59:44;27.40;46.40
14901;DHT22;7542;49.078;9.194;2023-07-13T04:00:46;27.40;46.40
14901;DHT22;7542;49.078;9.194;2023-07-13T04:01:48;27.40;46.40
14901;DHT22;7542;49.078;9.194;2023-07-13T04:02:51;27.30;46.40
14901;DHT22;7542;49.078;9.194;2023-07-13T04:03:53;27.30;46.50
14901;DHT22;7542;49.078;9.194;2023-07-13T04:04:55;27.30;46.60
14901;DHT22;7542;49.078;9.194;2023-07-13T04:05:57;27.30;46.60
14901;DHT22;7542;49.078;9.194;2023-07-13T04:07:01;27.30;46.70
14901;DHT22;7542;49.078;9.194;2023-07-13T04:08:03;27.30;46.70
14901;DHT22;7542;49.078;9.194;2023-07-13T04:09:06;27.20;46.80
14901;DHT22;7542;49.078;9.194;2023-07-13T04:10:08;27.20;46.80
14901;DHT22;7542;49.078;9.194;2023-07-13T04:11:10;27.20;46.90
14901;DHT22;7542;49.078;9.194;2023-07-13T04:12:12;27.20;46.90
14901;DHT22;7542;49.078;9.194;2023-07-13T04:13:14;27.20;46.90
14901;DHT22;7542;49.078;9.194;2023-07-13T04:14:16;27.20;46.90
14901;DHT22;7542;49.078;9.194;2023-07-13T04:15:19;27.20;47.00
14901;DHT22;7542;49.078;9.194;2023-07-13T04:16:21;27.20;47.10
14901;DHT22;7542;49.078;9.194;2023-07-13T04:17:24;27.10;47.10
14901;DHT22;7542;49.078;9.194;2023-07-13T04:18:26;27.20;47.10
14901;DHT22;7542;49.078;9.194;2023-07-13T04:19:28;27.20;47.10
14901;DHT22;7542;49.078;9.194;2023-07-13T04:20:30;27.10;47.10
14901;DHT22;7542;49.078;9.194;2023-07-13T04:21:32;27.20;47.10
14901;DHT22;7542;49.078;9.194;2023-07-13T04:22:34;27.00;47.10
14901;DHT22;7542;49.078;9.194;2023-07-13T04:23:37;27.20;47.20
14901;DHT22;7542;49.078;9.194;2023-07-13T04:24:39;27.10;47.20
14901;DHT22;7542;49.078;9.194;2023-07-13T04:25:46;27.10;47.20
14901;DHT22;7542;49.078;9.194;2023-07-13T04:26:51;27.10;47.20
14901;DHT22;7542;49.078;9.194;2023-07-13T04:27:53;27.20;47.20
14901;DHT22;7542;49.078;9.194;2023-07-13T04:28:56;27.10;47.30
14901;DHT22;7542;49.078;9.194;2023-07-13T04:29:59;27.10;47.30
14901;DHT22;7542;49.078;9.194;2023-07-13T04:31:01;27.00;47.40
14901;DHT22;7542;49.078;9.194;2023-07-13T04:32:03;27.10;47.40
14901;DHT22;7542;49.078;9.194;2023-07-13T04:33:06;27.10;47.40
14901;DHT22;7542;49.078;9.194;2023-07-13T04:34:08;27.10;47.40
14901;DHT22;7542;49.078;9.194;2023-07-13T04:35:10;27.10;47.40
14901;DHT22;7542;49.078;9.194;2023-07-13T04:36:12;27.00;47.40
14901;DHT22;7542;49.078;9.194;2023-07-13T04:37:14;27.10;47.40
14901;DHT22;7542;49.078;9.194;2023-07-13T04:38:16;27.10;47.40
14901;DHT22;7542;49.078;9.194;2023-07-13T04:39:18;27.10;47.40
14901;DHT22;7542;49.078;9.194;2023-07-13T04:40:21;27.10;47.50
14901;DHT22;7542;49.078;9.194;2023-07-13T04:41:23;27.10;47.40
14901;DHT22;7542;49.078;9.194;2023-07-13T04:42:25;27.10;47.50
14901;DHT22;7542;49.078;9.194;2023-07-13T04:43:28;27.10;47.50
14901;DHT22;7542;49.078;9.194;2023-07-13T04:44:30;27.20;47.50
14901;DHT22;7542;49.078;9.194;2023-07-13T04:45:32;27.10;47.50
14901;DHT22;7542;49.078;9.194;2023-07-13T04:46:37;27.00;47.60
14901;DHT22;7542;49.078;9.194;2023-07-13T04:47:39;27.00;47.60
14901;DHT22;7542;49.078;9.194;2023-07-13T04:48:42;27.00;47.60
14901;DHT22;7542;49.078;9.194;2023-07-13T04:49:44;27.10;47.60
14901;DHT22;7542;49.078;9.194;2023-07-13T04:50:47;27.00;47.70
14901;DHT22;7542;49.078;9.194;2023-07-13T04:51:49;27.00;47.70
14901;DHT22;7542;49.078;9.194;2023-07-13T04:52:52;27.00;47.70
14901;DHT22;7542;49.078;9.194;2023-07-13T04:53:53;27.00;47.70
14901;DHT22;7542;49.078;9.194;2023-07-13T04:55:02;27.00;47.70
14901;DHT22;7542;49.078;9.194;2023-07-13T04:56:04;27.00;47.80
14901;DHT22;7542;49.078;9.194;2023-07-13T04:57:06;27.00;47.80
14901;DHT22;7542;49.078;9.194;2023-07-13T04:58:08;27.00;47.90
14901;DHT22;7542;49.078;9.194;2023-07-13T04:59:10;27.00;47.90
14901;DHT22;7542;49.078;9.194;2023-07-13T05:00:13;27.00;47.90
14901;DHT22;7542;49.078;9.194;2023-07-13T05:01:17;26.90;47.40
14901;DHT22;7542;49.078;9.194;2023-07-13T05:02:22;27.00;47.90
14901;DHT22;7542;49.078;9.194;2023-07-13T05:03:24;27.00;47.90
14901;DHT22;7542;49.078;9.194;2023-07-13T05:04:27;27.00;47.90
14901;DHT22;7542;49.078;9.194;2023-07-13T05:05:29;27.00;47.90
14901;DHT22;7542;49.078;9.194;2023-07-13T05:06:31;27.00;47.90
14901;DHT22;7542;49.078;9.194;2023-07-13T05:07:33;26.90;47.40
14901;DHT22;7542;49.078;9.194;2023-07-13T05:08:35;26.90;47.40
14901;DHT22;7542;49.078;9.194;2023-07-13T05:09:37;26.90;47.50
14901;DHT22;7542;49.078;9.194;2023-07-13T05:10:39;26.90;47.50
14901;DHT22;7542;49.078;9.194;2023-07-13T05:11:41;26.90;47.50
14901;DHT22;7542;49.078;9.194;2023-07-13T05:12:42;26.90;47.60
14901;DHT22;7542;49.078;9.194;2023-07-13T05:13:45;26.90;47.60
14901;DHT22;7542;49.078;9.194;2023-07-13T05:14:47;26.90;47.70
14901;DHT22;7542;49.078;9.194;2023-07-13T05:15:58;26.90;47.70
14901;DHT22;7542;49.078;9.194;2023-07-13T05:17:03;26.90;47.80
14901;DHT22;7542;49.078;9.194;2023-07-13T05:18:06;26.90;47.80
14901;DHT22;7542;49.078;9.194;2023-07-13T05:19:08;26.90;47.80
14901;DHT22;7542;49.078;9.194;2023-07-13T05:20:11;26.90;47.90
14901;DHT22;7542;49.078;9.194;2023-07-13T05:21:13;26.90;47.90
14901;DHT22;7542;49.078;9.194;2023-07-13T05:22:15;26.90;47.90
14901;DHT22;7542;49.078;9.194;2023-07-13T05:23:17;26.90;47.90
14901;DHT22;7542;49.078;9.194;2023-07-13T05:24:19;26.90;48.00
14901;DHT22;7542;49.078;9.194;2023-07-13T05:25:26;26.90;48.00
14901;DHT22;7542;49.078;9.194;2023-07-13T05:26:28;26.80;48.10
14901;DHT22;7542;49.078;9.194;2023-07-13T05:27:30;26.80;48.10
14901;DHT22;7542;49.078;9.194;2023-07-13T05:28:32;26.80;48.10
14901;DHT22;7542;49.078;9.194;2023-07-13T05:29:35;26.80;48.10
14901;DHT22;7542;49.078;9.194;2023-07-13T05:30:37;26.80;48.20
14901;DHT22;7542;49.078;9.194;2023-07-13T05:31:40;27.00;48.60
14901;DHT22;7542;49.078;9.194;2023-07-13T05:32:42;26.80;48.10
14901;DHT22;7542;49.078;9.194;2023-07-13T05:33:44;26.80;48.20
14901;DHT22;7542;49.078;9.194;2023-07-13T05:34:46;26.80;48.10
14901;DHT22;7542;49.078;9.194;2023-07-13T05:35:48;26.80;48.00
14901;DHT22;7542;49.078;9.194;2023-07-13T05:36:50;26.80;48.00
14901;DHT22;7542;49.078;9.194;2023-07-13T05:37:52;26.80;48.00
14901;DHT22;7542;49.078;9.194;2023-07-13T05:38:55;26.80;48.00
14901;DHT22;7542;49.078;9.194;2023-07-13T05:39:56;26.90;48.00
14901;DHT22;7542;49.078;9.194;2023-07-13T05:40:59;26.80;48.00
14901;DHT22;7542;49.078;9.194;2023-07-13T05:42:06;26.80;48.00
14901;DHT22;7542;49.078;9.194;2023-07-13T05:43:08;26.80;48.00
14901;DHT22;7542;49.078;9.194;2023-07-13T05:44:11;26.80;47.90
14901;DHT22;7542;49.078;9.194;2023-07-13T05:45:13;26.80;47.90
14901;DHT22;7542;49.078;9.194;2023-07-13T05:46:15;26.80;47.90
14901;DHT22;7542;49.078;9.194;2023-07-13T05:47:17;26.80;47.90
14901;DHT22;7542;49.078;9.194;2023-07-13T05:48:19;26.80;47.90
14901;DHT22;7542;49.078;9.194;2023-07-13T05:49:21;26.90;47.90
14901;DHT22;7542;49.078;9.194;2023-07-13T05:50:26;26.80;48.00
14901;DHT22;7542;49.078;9.194;2023-07-13T05:51:29;26.80;48.00
14901;DHT22;7542;49.078;9.194;2023-07-13T05:52:31;26.80;48.10
14901;DHT22;7542;49.078;9.194;2023-07-13T05:53:34;26.80;48.20
14901;DHT22;7542;49.078;9.194;2023-07-13T05:54:37;26.80;48.20
14901;DHT22;7542;49.078;9.194;2023-07-13T05:55:43;27.00;48.70
14901;DHT22;7542;49.078;9.194;2023-07-13T05:56:46;26.90;48.20
14901;DHT22;7542;49.078;9.194;2023-07-13T05:57:48;26.90;48.30
14901;DHT22;7542;49.078;9.194;2023-07-13T05:58:50;26.90;48.30
14901;DHT22;7542;49.078;9.194;2023-07-13T05:59:51;26.90;48.30
14901;DHT22;7542;49.078;9.194;2023-07-13T06:01:10;26.90;48.20
14901;DHT22;7542;49.078;9.194;2023-07-13T06:02:15;26.80;48.20
14901;DHT22;7542;49.078;9.194;2023-07-13T06:03:17;26.90;48.20
14901;DHT22;7542;49.078;9.194;2023-07-13T06:04:19;26.90;48.10
14901;DHT22;7542;49.078;9.194;2023-07-13T06:05:21;26.90;48.20
14901;DHT22;7542;49.078;9.194;2023-07-13T06:06:23;26.90;48.10
14901;DHT22;7542;49.078;9.194;2023-07-13T06:07:25;26.90;48.20
14901;DHT22;7542;49.078;9.194;2023-07-13T06:08:28;26.90;48.20
14901;DHT22;7542;49.078;9.194;2023-07-13T06:09:30;26.90;48.30
14901;DHT22;7542;49.078;9.194;2023-07-13T06:10:36;26.90;48.40
14901;DHT22;7542;49.078;9.194;2023-07-13T06:11:38;26.90;48.50
14901;DHT22;7542;49.078;9.194;2023-07-13T06:12:40;27.20;49.10
14901;DHT22;7542;49.078;9.194;2023-07-13T06:13:43;26.90;48.70
14901;DHT22;7542;49.078;9.194;2023-07-13T06:14:45;26.90;48.90
14901;DHT22;7542;49.078;9.194;2023-07-13T06:15:50;26.90;48.90
14901;DHT22;7542;49.078;9.194;2023-07-13T06:16:52;26.80;48.90
14901;DHT22;7542;49.078;9.194;2023-07-13T06:17:54;26.80;48.90
14901;DHT22;7542;49.078;9.194;2023-07-13T06:18:56;26.80;49.00
14901;DHT22;7542;49.078;9.194;2023-07-13T06:19:58;26.80;49.00
14901;DHT22;7542;49.078;9.194;2023-07-13T06:21:11;26.80;49.00
14901;DHT22;7542;49.078;9.194;2023-07-13T06:22:14;26.80;49.00
14901;DHT22;7542;49.078;9.194;2023-07-13T06:23:16;26.80;49.20
14901;DHT22;7542;49.078;9.194;2023-07-13T06:24:18;26.80;49.20
14901;DHT22;7542;49.078;9.194;2023-07-13T06:25:20;26.80;49.10
14901;DHT22;7542;49.078;9.194;2023-07-13T06:26:22;26.80;49.00
14901;DHT22;7542;49.078;9.194;2023-07-13T06:27:25;26.80;48.90
14901;DHT22;7542;49.078;9.194;2023-07-13T06:28:29;26.80;48.80
14901;DHT22;7542;49.078;9.194;2023-07-13T06:29:33;26.80;48.80
14901;DHT22;7542;49.078;9.194;2023-07-13T06:30:35;26.80;49.00
14901;DHT22;7542;49.078;9.194;2023-07-13T06:31:40;26.70;49.20
14901;DHT22;7542;49.078;9.194;2023-07-13T06:32:42;26.80;49.40
14901;DHT22;7542;49.078;9.194;2023-07-13T06:33:44;26.70;49.60
14901;DHT22;7542;49.078;9.194;2023-07-13T06:34:46;26.70;49.80
14901;DHT22;7542;49.078;9.194;2023-07-13T06:35:48;26.70;49.90
14901;DHT22;7542;49.078;9.194;2023-07-13T06:36:51;26.70;50.00
14901;DHT22;7542;49.078;9.194;2023-07-13T06:37:53;26.70;50.10
14901;DHT22;7542;49.078;9.194;2023-07-13T06:38:55;26.70;50.00
14901;DHT22;7542;49.078;9.194;2023-07-13T06:39:57;26.60;50.00
14901;DHT22;7542;49.078;9.194;2023-07-13T06:40:59;26.70;49.90
14901;DHT22;7542;49.078;9.194;2023-07-13T06:42:01;26.60;49.80
14901;DHT22;7542;49.078;9.194;2023-07-13T06:43:03;26.60;49.60
14901;DHT22;7542;49.078;9.194;2023-07-13T06:44:05;26.70;49.50
14901;DHT22;7542;49.078;9.194;2023-07-13T06:45:08;26.60;49.40